createdAt,value
2022-12-25T00:00:05.426Z,1007.12
2022-12-25T00:03:05.407Z,1007.11
2022-12-25T00:06:05.354Z,1007.12
2022-12-25T00:09:05.415Z,1007
2022-12-25T00:12:05.352Z,1006.96
2022-12-25T00:15:05.487Z,1006.86
2022-12-25T00:18:05.387Z,1006.83
2022-12-25T00:21:05.395Z,1006.8
2022-12-25T00:24:05.403Z,1006.68
2022-12-25T00:27:05.379Z,1006.61
2022-12-25T00:30:05.461Z,1006.62
2022-12-25T00:33:05.395Z,1006.6
2022-12-25T00:36:05.395Z,1006.64
2022-12-25T00:39:05.385Z,1006.65
2022-12-25T00:42:05.380Z,1006.71
2022-12-25T00:45:05.416Z,1006.67
2022-12-25T00:48:05.393Z,1006.69
2022-12-25T00:51:05.395Z,1006.77
2022-12-25T00:54:05.412Z,1006.89
2022-12-25T00:57:05.391Z,1006.91
2022-12-25T01:00:05.414Z,1006.85
2022-12-25T01:03:05.400Z,1006.78
2022-12-25T01:06:05.469Z,1006.7
2022-12-25T01:09:05.417Z,1006.62
2022-12-25T01:12:05.413Z,1006.67
2022-12-25T01:15:05.436Z,1006.68
2022-12-25T01:18:07.848Z,1006.7
2022-12-25T01:21:05.433Z,1006.73
2022-12-25T01:24:05.449Z,1006.77
2022-12-25T01:27:05.433Z,1006.87
2022-12-25T01:30:05.439Z,1006.9
2022-12-25T01:33:05.445Z,1006.99
2022-12-25T01:36:05.435Z,1007.06
2022-12-25T01:39:05.442Z,1007.03
2022-12-25T01:42:05.435Z,1006.95
2022-12-25T01:45:05.457Z,1006.89
2022-12-25T01:48:05.471Z,1006.91
2022-12-25T01:51:05.434Z,1006.95
2022-12-25T01:54:05.441Z,1007
2022-12-25T01:57:05.439Z,1006.95
2022-12-25T02:00:05.439Z,1006.81
2022-12-25T02:03:05.538Z,1006.83
2022-12-25T02:06:05.468Z,1006.79
2022-12-25T02:09:05.443Z,1006.72
2022-12-25T02:12:05.444Z,1006.76
2022-12-25T02:15:06.191Z,1006.73
2022-12-25T02:18:05.462Z,1006.76
2022-12-25T02:21:05.465Z,1006.75
2022-12-25T02:24:05.453Z,1006.73
2022-12-25T02:27:05.454Z,1006.72
2022-12-25T02:30:05.448Z,1006.69
2022-12-25T02:33:05.459Z,1006.65
2022-12-25T02:36:05.486Z,1006.7
2022-12-25T02:39:05.464Z,1006.76
2022-12-25T02:42:05.464Z,1006.71
2022-12-25T02:45:05.473Z,1006.73
2022-12-25T02:48:05.463Z,1006.65
2022-12-25T02:51:05.470Z,1006.65
2022-12-25T02:54:05.468Z,1006.57
2022-12-25T02:57:05.477Z,1006.52
2022-12-25T03:00:05.525Z,1006.51
2022-12-25T03:03:05.487Z,1006.44
2022-12-25T03:06:05.468Z,1006.47
2022-12-25T03:09:05.468Z,1006.56
2022-12-25T03:12:05.470Z,1006.46
2022-12-25T03:15:05.484Z,1006.5
2022-12-25T03:18:05.524Z,1006.56
2022-12-25T03:21:05.481Z,1006.63
2022-12-25T03:24:05.483Z,1006.63
2022-12-25T03:27:05.486Z,1006.63
2022-12-25T03:30:05.487Z,1006.72
2022-12-25T03:33:17.862Z,1006.74
2022-12-25T03:36:05.500Z,1006.75
2022-12-25T03:39:05.493Z,1006.69
2022-12-25T03:42:05.532Z,1006.68
2022-12-25T03:45:05.500Z,1006.62
2022-12-25T03:48:05.508Z,1006.64
2022-12-25T03:51:05.512Z,1006.64
2022-12-25T03:54:05.520Z,1006.56
2022-12-25T03:57:05.512Z,1006.48
2022-12-25T04:00:05.514Z,1006.36
2022-12-25T04:03:05.515Z,1006.33
2022-12-25T04:06:05.511Z,1006.3
2022-12-25T04:09:05.521Z,1006.27
2022-12-25T04:12:05.522Z,1006.28
2022-12-25T04:15:05.520Z,1006.29
2022-12-25T04:18:05.512Z,1006.28
2022-12-25T04:21:05.528Z,1006.22
2022-12-25T04:24:05.530Z,1006.21
2022-12-25T04:27:05.528Z,1006.16
2022-12-25T04:30:05.523Z,1006.24
2022-12-25T04:33:05.532Z,1006.23
2022-12-25T04:36:05.531Z,1006.19
2022-12-25T04:39:05.525Z,1006.2
2022-12-25T04:42:05.539Z,1006.23
2022-12-25T04:45:05.533Z,1006.25
2022-12-25T04:48:05.513Z,1006.21
2022-12-25T04:51:05.536Z,1006.26
2022-12-25T04:54:05.532Z,1006.2
2022-12-25T04:57:05.528Z,1006.2
2022-12-25T05:00:05.536Z,1006.23
2022-12-25T05:03:05.603Z,1006.22
2022-12-25T05:06:05.528Z,1006.2
2022-12-25T05:09:05.532Z,1006.15
2022-12-25T05:12:05.531Z,1006.11
2022-12-25T05:15:05.523Z,1006.13
2022-12-25T05:18:05.524Z,1006.2
2022-12-25T05:21:05.540Z,1006.24
2022-12-25T05:24:05.557Z,1006.28
2022-12-25T05:27:05.539Z,1006.29
2022-12-25T05:30:05.537Z,1006.26
2022-12-25T05:33:05.534Z,1006.25
2022-12-25T05:36:05.539Z,1006.21
2022-12-25T05:39:05.532Z,1006.25
2022-12-25T05:42:05.532Z,1006.2
2022-12-25T05:45:05.524Z,1006.22
2022-12-25T05:48:05.533Z,1006.21
2022-12-25T05:51:05.535Z,1006.16
2022-12-25T05:54:05.534Z,1006.14
2022-12-25T05:57:05.566Z,1006.11
2022-12-25T06:00:05.565Z,1006.12
2022-12-25T06:03:05.618Z,1006.12
2022-12-25T06:06:05.541Z,1006.05
2022-12-25T06:09:05.603Z,1006.05
2022-12-25T06:12:05.549Z,1006.06
2022-12-25T06:15:05.563Z,1006.07
2022-12-25T06:18:05.545Z,1006.04
2022-12-25T06:21:05.547Z,1006.02
2022-12-25T06:24:05.655Z,1005.97
2022-12-25T06:27:05.554Z,1005.9
2022-12-25T06:30:05.548Z,1005.92
2022-12-25T06:33:05.559Z,1005.77
2022-12-25T06:36:05.564Z,1005.7
2022-12-25T06:39:05.562Z,1005.73
2022-12-25T06:42:05.561Z,1005.75
2022-12-25T06:45:05.806Z,1005.78
2022-12-25T06:48:05.644Z,1005.78
2022-12-25T06:51:05.627Z,1005.79
2022-12-25T06:54:05.646Z,1005.8
2022-12-25T06:57:05.632Z,1005.81
2022-12-25T07:00:05.649Z,1005.75
2022-12-25T07:03:05.750Z,1005.79
2022-12-25T07:06:05.639Z,1005.82
2022-12-25T07:09:05.637Z,1005.83
2022-12-25T07:12:05.632Z,1005.86
2022-12-25T07:15:05.636Z,1005.88
2022-12-25T07:18:05.640Z,1005.85
2022-12-25T07:21:05.626Z,1005.81
2022-12-25T07:24:05.635Z,1005.83
2022-12-25T07:27:05.649Z,1005.88
2022-12-25T07:30:05.633Z,1005.87
2022-12-25T07:33:05.632Z,1005.87
2022-12-25T07:36:05.661Z,1005.79
2022-12-25T07:39:05.639Z,1005.67
2022-12-25T07:42:05.638Z,1005.71
2022-12-25T07:45:05.642Z,1005.63
2022-12-25T07:48:07.571Z,1005.59
2022-12-25T07:51:05.675Z,1005.6
2022-12-25T07:54:05.654Z,1005.57
2022-12-25T07:57:05.647Z,1005.67
2022-12-25T08:00:05.632Z,1005.72
2022-12-25T08:03:05.869Z,1005.67
2022-12-25T08:06:05.640Z,1005.59
2022-12-25T08:09:05.635Z,1005.57
2022-12-25T08:12:05.630Z,1005.66
2022-12-25T08:15:05.785Z,1005.68
2022-12-25T08:18:05.726Z,1005.54
2022-12-25T08:21:05.728Z,1005.4
2022-12-25T08:24:05.754Z,1005.26
2022-12-25T08:27:05.720Z,1005.15
2022-12-25T08:30:05.798Z,1005.08
2022-12-25T08:33:05.734Z,1005.08
2022-12-25T08:36:05.742Z,1005.16
2022-12-25T08:39:05.738Z,1005.31
2022-12-25T08:42:05.731Z,1005.4
2022-12-25T08:45:05.735Z,1005.55
2022-12-25T08:48:05.738Z,1005.35
2022-12-25T08:51:05.745Z,1005.25
2022-12-25T08:54:05.725Z,1005.03
2022-12-25T08:57:05.735Z,1004.91
2022-12-25T09:00:05.736Z,1005.09
2022-12-25T09:03:05.835Z,1005.16
2022-12-25T09:06:05.736Z,1005.28
2022-12-25T09:09:05.735Z,1005.34
2022-12-25T09:12:05.741Z,1005.48
2022-12-25T09:15:05.739Z,1005.5
2022-12-25T09:18:05.739Z,1005.51
2022-12-25T09:21:05.771Z,1005.6
2022-12-25T09:24:05.741Z,1005.54
2022-12-25T09:27:05.739Z,1005.48
2022-12-25T09:30:05.751Z,1005.44
2022-12-25T09:33:05.732Z,1005.4
2022-12-25T09:36:05.728Z,1005.39
2022-12-25T09:39:05.740Z,1005.37
2022-12-25T09:42:05.739Z,1005.37
2022-12-25T09:45:05.751Z,1005.31
2022-12-25T09:48:05.762Z,1005.31
2022-12-25T09:51:05.735Z,1005.27
2022-12-25T09:54:05.733Z,1005.15
2022-12-25T09:57:05.747Z,1005.17
2022-12-25T10:00:05.746Z,1005.17
2022-12-25T10:03:05.874Z,1005.18
2022-12-25T10:06:05.734Z,1005.17
2022-12-25T10:09:05.738Z,1005.05
2022-12-25T10:12:05.795Z,1004.81
2022-12-25T10:15:05.743Z,1004.74
2022-12-25T10:18:05.738Z,1004.63
2022-12-25T10:21:11.119Z,1004.47
2022-12-25T10:24:05.745Z,1004.44
2022-12-25T10:27:05.764Z,1004.33
2022-12-25T10:30:05.744Z,1004.38
2022-12-25T10:33:05.758Z,1004.51
2022-12-25T10:36:05.747Z,1004.72
2022-12-25T10:39:05.744Z,1004.7
2022-12-25T10:42:05.753Z,1004.67
2022-12-25T10:45:05.749Z,1004.6
2022-12-25T10:48:07.564Z,1004.58
2022-12-25T10:51:05.748Z,1004.44
2022-12-25T10:54:05.763Z,1004.34
2022-12-25T10:57:05.758Z,1004.33
2022-12-25T11:00:05.752Z,1004.36
2022-12-25T11:03:05.870Z,1004.36
2022-12-25T11:06:05.756Z,1004.3
2022-12-25T11:09:05.749Z,1004.23
2022-12-25T11:12:05.755Z,1004.17
2022-12-25T11:15:05.748Z,1004.27
2022-12-25T11:18:05.762Z,1004.29
2022-12-25T11:21:05.749Z,1004.22
2022-12-25T11:24:05.757Z,1004.17
2022-12-25T11:27:05.753Z,1004.16
2022-12-25T11:30:07.839Z,1004.12
2022-12-25T11:33:05.751Z,1004.14
2022-12-25T11:36:05.751Z,1004.14
2022-12-25T11:39:05.760Z,1004.12
2022-12-25T11:42:05.776Z,1004.07
2022-12-25T11:45:05.760Z,1004.03
2022-12-25T11:48:05.752Z,1004.03
2022-12-25T11:51:05.768Z,1003.91
2022-12-25T11:54:05.763Z,1003.89
2022-12-25T11:57:05.759Z,1003.88
2022-12-25T12:00:05.770Z,1003.81
2022-12-25T12:03:05.833Z,1003.72
2022-12-25T12:06:05.755Z,1003.56
2022-12-25T12:09:05.756Z,1003.47
2022-12-25T12:12:05.763Z,1003.39
2022-12-25T12:15:05.772Z,1003.25
2022-12-25T12:18:05.754Z,1003.05
2022-12-25T12:21:05.762Z,1002.99
2022-12-25T12:24:05.770Z,1003.12
2022-12-25T12:27:05.764Z,1003.16
2022-12-25T12:30:05.778Z,1003.2
2022-12-25T12:33:05.767Z,1003.2
2022-12-25T12:36:05.785Z,1003.21
2022-12-25T12:39:05.929Z,1003.28
2022-12-25T12:42:05.758Z,1003.21
2022-12-25T12:45:05.767Z,1003.09
2022-12-25T12:48:05.763Z,1003.01
2022-12-25T12:51:05.768Z,1003.07
2022-12-25T12:54:05.768Z,1003.17
2022-12-25T12:57:05.761Z,1003.18
2022-12-25T13:00:09.865Z,1003.21
2022-12-25T13:03:05.807Z,1003.16
2022-12-25T13:06:05.768Z,1003.13
2022-12-25T13:09:05.766Z,1003.09
2022-12-25T13:12:05.760Z,1002.96
2022-12-25T13:15:05.768Z,1002.84
2022-12-25T13:18:05.771Z,1002.82
2022-12-25T13:21:05.756Z,1002.91
2022-12-25T13:24:05.761Z,1003.01
2022-12-25T13:27:05.766Z,1003.06
2022-12-25T13:30:05.771Z,1003.17
2022-12-25T13:33:05.779Z,1003.12
2022-12-25T13:36:05.763Z,1003.05
2022-12-25T13:39:05.767Z,1002.98
2022-12-25T13:42:05.851Z,1002.94
2022-12-25T13:45:05.773Z,1002.84
2022-12-25T13:48:05.764Z,1002.78
2022-12-25T13:51:05.785Z,1002.68
2022-12-25T13:54:05.771Z,1002.59
2022-12-25T13:57:05.767Z,1002.56
2022-12-25T14:00:05.778Z,1002.58
2022-12-25T14:03:05.808Z,1002.71
2022-12-25T14:06:05.781Z,1002.75
2022-12-25T14:09:05.774Z,1002.73
2022-12-25T14:12:05.772Z,1002.65
2022-12-25T14:15:05.768Z,1002.68
2022-12-25T14:18:05.776Z,1002.78
2022-12-25T14:21:05.773Z,1002.83
2022-12-25T14:24:05.774Z,1002.82
2022-12-25T14:27:05.775Z,1002.82
2022-12-25T14:30:05.817Z,1002.76
2022-12-25T14:33:05.779Z,1002.83
2022-12-25T14:36:05.779Z,1002.79
2022-12-25T14:39:05.778Z,1002.75
2022-12-25T14:42:05.770Z,1002.71
2022-12-25T14:45:05.782Z,1002.73
2022-12-25T14:48:05.776Z,1002.82
2022-12-25T14:51:05.815Z,1002.87
2022-12-25T14:54:05.847Z,1002.96
2022-12-25T14:57:05.777Z,1002.97
2022-12-25T15:00:05.775Z,1002.85
2022-12-25T15:03:05.911Z,1002.82
2022-12-25T15:06:05.825Z,1002.8
2022-12-25T15:09:05.778Z,1002.77
2022-12-25T15:12:05.796Z,1002.73
2022-12-25T15:15:05.825Z,1002.69
2022-12-25T15:18:05.779Z,1002.67
2022-12-25T15:21:05.781Z,1002.69
2022-12-25T15:24:05.777Z,1002.69
2022-12-25T15:27:05.787Z,1002.73
2022-12-25T15:30:10.308Z,1002.77
2022-12-25T15:33:05.776Z,1002.71
2022-12-25T15:36:05.776Z,1002.69
2022-12-25T15:39:05.811Z,1002.73
2022-12-25T15:42:05.797Z,1002.68
2022-12-25T15:45:05.792Z,1002.65
2022-12-25T15:48:05.791Z,1002.62
2022-12-25T15:51:05.792Z,1002.73
2022-12-25T15:54:05.791Z,1002.68
2022-12-25T15:57:05.786Z,1002.77
2022-12-25T16:00:05.791Z,1002.76
2022-12-25T16:03:05.958Z,1002.72
2022-12-25T16:06:05.787Z,1002.73
2022-12-25T16:09:05.797Z,1002.71
2022-12-25T16:12:05.790Z,1002.75
2022-12-25T16:15:05.802Z,1002.75
2022-12-25T16:18:05.801Z,1002.73
2022-12-25T16:21:05.800Z,1002.62
2022-12-25T16:24:05.797Z,1002.53
2022-12-25T16:27:05.815Z,1002.51
2022-12-25T16:30:05.797Z,1002.54
2022-12-25T16:33:05.792Z,1002.48
2022-12-25T16:36:05.791Z,1002.41
2022-12-25T16:39:05.828Z,1002.35
2022-12-25T16:42:05.801Z,1002.34
2022-12-25T16:45:05.792Z,1002.35
2022-12-25T16:48:05.813Z,1002.42
2022-12-25T16:51:05.801Z,1002.53
2022-12-25T16:54:05.812Z,1002.5
2022-12-25T16:57:05.801Z,1002.45
2022-12-25T17:00:05.802Z,1002.5
2022-12-25T17:03:05.887Z,1002.56
2022-12-25T17:06:05.799Z,1002.64
2022-12-25T17:09:05.803Z,1002.69
2022-12-25T17:12:05.814Z,1002.79
2022-12-25T17:15:05.797Z,1002.97
2022-12-25T17:18:05.797Z,1002.87
2022-12-25T17:21:05.799Z,1002.81
2022-12-25T17:24:05.797Z,1002.78
2022-12-25T17:27:05.814Z,1002.76
2022-12-25T17:30:05.796Z,1002.73
2022-12-25T17:33:05.808Z,1002.89
2022-12-25T17:36:05.802Z,1002.94
2022-12-25T17:39:05.814Z,1002.85
2022-12-25T17:42:05.796Z,1002.89
2022-12-25T17:45:05.802Z,1002.82
2022-12-25T17:48:05.805Z,1002.67
2022-12-25T17:51:05.835Z,1002.61
2022-12-25T17:54:05.816Z,1002.51
2022-12-25T17:57:05.816Z,1002.44
2022-12-25T18:00:05.805Z,1002.38
2022-12-25T18:03:10.709Z,1002.44
2022-12-25T18:06:05.807Z,1002.44
2022-12-25T18:09:05.814Z,1002.49
2022-12-25T18:12:05.807Z,1002.59
2022-12-25T18:15:05.808Z,1002.68
2022-12-25T18:18:05.808Z,1002.62
2022-12-25T18:21:05.808Z,1002.59
2022-12-25T18:24:05.821Z,1002.52
2022-12-25T18:27:05.810Z,1002.54
2022-12-25T18:30:05.810Z,1002.55
2022-12-25T18:33:05.804Z,1002.48
2022-12-25T18:36:05.812Z,1002.49
2022-12-25T18:39:05.817Z,1002.46
2022-12-25T18:42:05.812Z,1002.47
2022-12-25T18:45:05.812Z,1002.37
2022-12-25T18:48:05.807Z,1002.25
2022-12-25T18:51:05.814Z,1002.23
2022-12-25T18:54:05.817Z,1002.34
2022-12-25T18:57:07.376Z,1002.35
2022-12-25T19:00:05.808Z,1002.38
2022-12-25T19:03:05.969Z,1002.39
2022-12-25T19:06:05.807Z,1002.43
2022-12-25T19:09:05.809Z,1002.39
2022-12-25T19:12:05.810Z,1002.31
2022-12-25T19:15:05.808Z,1002.36
2022-12-25T19:18:05.832Z,1002.32
2022-12-25T19:21:05.822Z,1002.37
2022-12-25T19:24:05.818Z,1002.27
2022-12-25T19:27:05.812Z,1002.24
2022-12-25T19:30:05.827Z,1002.23
2022-12-25T19:33:05.818Z,1002.31
2022-12-25T19:36:05.810Z,1002.29
2022-12-25T19:39:05.815Z,1002.35
2022-12-25T19:42:05.820Z,1002.5
2022-12-25T19:45:05.819Z,1002.52
2022-12-25T19:48:05.813Z,1002.57
2022-12-25T19:51:05.819Z,1002.54
2022-12-25T19:54:05.882Z,1002.44
2022-12-25T19:57:05.817Z,1002.43
2022-12-25T20:00:05.828Z,1002.47
2022-12-25T20:03:05.880Z,1002.46
2022-12-25T20:06:05.814Z,1002.47
2022-12-25T20:09:05.842Z,1002.43
2022-12-25T20:12:05.831Z,1002.44
2022-12-25T20:15:05.830Z,1002.29
2022-12-25T20:18:05.828Z,1002.32
2022-12-25T20:21:05.841Z,1002.38
2022-12-25T20:24:05.824Z,1002.43
2022-12-25T20:27:05.826Z,1002.56
2022-12-25T20:30:05.857Z,1002.52
2022-12-25T20:33:05.828Z,1002.44
2022-12-25T20:36:05.838Z,1002.38
2022-12-25T20:39:05.833Z,1002.45
2022-12-25T20:42:05.841Z,1002.51
2022-12-25T20:45:05.834Z,1002.57
2022-12-25T20:48:05.846Z,1002.63
2022-12-25T20:51:05.831Z,1002.57
2022-12-25T20:54:05.832Z,1002.49
2022-12-25T20:57:05.829Z,1002.48
2022-12-25T21:00:05.835Z,1002.55
2022-12-25T21:03:05.973Z,1002.59
2022-12-25T21:06:05.837Z,1002.66
2022-12-25T21:09:05.835Z,1002.74
2022-12-25T21:12:05.833Z,1002.79
2022-12-25T21:15:08.943Z,1002.85
2022-12-25T21:18:05.831Z,1002.88
2022-12-25T21:21:05.833Z,1002.87
2022-12-25T21:24:05.839Z,1002.91
2022-12-25T21:27:05.840Z,1002.95
2022-12-25T21:30:14.116Z,1002.93
2022-12-25T21:33:05.832Z,1002.93
2022-12-25T21:36:05.831Z,1002.93
2022-12-25T21:39:05.837Z,1002.91
2022-12-25T21:42:05.839Z,1002.96
2022-12-25T21:45:05.847Z,1003.03
2022-12-25T21:48:05.831Z,1003.03
2022-12-25T21:51:05.838Z,1003.06
2022-12-25T21:54:05.848Z,1003.15
2022-12-25T21:57:05.832Z,1003.18
2022-12-25T22:00:05.836Z,1003.13
2022-12-25T22:03:05.968Z,1003.04
2022-12-25T22:06:05.851Z,1003.14
2022-12-25T22:09:05.838Z,1003.14
2022-12-25T22:12:05.834Z,1003.21
2022-12-25T22:15:05.864Z,1003.23
2022-12-25T22:18:05.841Z,1003.18
2022-12-25T22:21:05.840Z,1003.17
2022-12-25T22:24:05.838Z,1003.05
2022-12-25T22:27:05.837Z,1003.08
2022-12-25T22:30:05.835Z,1003.07
2022-12-25T22:33:05.837Z,1003.13
2022-12-25T22:36:05.836Z,1003.07
2022-12-25T22:39:05.834Z,1003.09
2022-12-25T22:42:05.834Z,1003.11
2022-12-25T22:45:05.838Z,1003.09
2022-12-25T22:48:05.841Z,1003.11
2022-12-25T22:51:05.837Z,1003.14
2022-12-25T22:54:05.829Z,1003.19
2022-12-25T22:57:05.831Z,1003.15
2022-12-25T23:00:05.852Z,1003.13
2022-12-25T23:03:05.872Z,1003.02
2022-12-25T23:06:05.834Z,1003
2022-12-25T23:09:05.840Z,1003.14
2022-12-25T23:12:05.829Z,1003.21
2022-12-25T23:15:05.864Z,1003.25
2022-12-25T23:18:05.841Z,1003.3
2022-12-25T23:21:05.834Z,1003.21
2022-12-25T23:24:05.845Z,1003.25
2022-12-25T23:27:05.838Z,1003.25
2022-12-25T23:30:05.848Z,1003.33
2022-12-25T23:33:05.838Z,1003.31
2022-12-25T23:36:05.833Z,1003.34
2022-12-25T23:39:09.919Z,1003.33
2022-12-25T23:42:05.842Z,1003.35
2022-12-25T23:45:06.196Z,1003.22
2022-12-25T23:48:05.878Z,1003.22
2022-12-25T23:51:05.884Z,1003.21
2022-12-25T23:54:05.875Z,1003.23
2022-12-25T23:57:05.884Z,1003.26
